sensor_id;sensor_type;location;lat;lon;timestamp;temperature;humidity
53962;DHT22;39868;53.398;6.564;2023-01-13T00:01:25;12.10;78.80
53962;DHT22;39868;53.398;6.564;2023-01-13T00:03:53;12.00;77.70
53962;DHT22;39868;53.398;6.564;2023-01-13T00:06:22;12.00;77.30
53962;DHT22;39868;53.398;6.564;2023-01-13T00:08:52;11.90;76.60
53962;DHT22;39868;53.398;6.564;2023-01-13T00:11:21;11.90;76.30
53962;DHT22;39868;53.398;6.564;2023-01-13T00:13:49;11.80;76.00
53962;DHT22;39868;53.398;6.564;2023-01-13T00:16:17;11.80;75.90
53962;DHT22;39868;53.398;6.564;2023-01-13T00:18:46;11.70;75.90
53962;DHT22;39868;53.398;6.564;2023-01-13T00:21:16;11.70;75.90
53962;DHT22;39868;53.398;6.564;2023-01-13T00:23:45;11.70;75.80
53962;DHT22;39868;53.398;6.564;2023-01-13T00:26:15;11.60;76.00
53962;DHT22;39868;53.398;6.564;2023-01-13T00:28:43;11.60;75.90
53962;DHT22;39868;53.398;6.564;2023-01-13T00:31:13;11.50;75.40
53962;DHT22;39868;53.398;6.564;2023-01-13T00:33:41;11.40;75.60
53962;DHT22;39868;53.398;6.564;2023-01-13T00:36:12;11.40;75.50
53962;DHT22;39868;53.398;6.564;2023-01-13T00:38:41;11.40;75.70
53962;DHT22;39868;53.398;6.564;2023-01-13T00:41:20;11.40;75.30
53962;DHT22;39868;53.398;6.564;2023-01-13T00:43:48;11.30;75.70
53962;DHT22;39868;53.398;6.564;2023-01-13T00:46:20;11.30;76.20
53962;DHT22;39868;53.398;6.564;2023-01-13T00:48:48;11.30;76.00
53962;DHT22;39868;53.398;6.564;2023-01-13T00:51:18;11.20;76.60
53962;DHT22;39868;53.398;6.564;2023-01-13T00:53:48;11.20;75.30
53962;DHT22;39868;53.398;6.564;2023-01-13T00:56:21;11.20;75.60
53962;DHT22;39868;53.398;6.564;2023-01-13T00:59:10;11.10;75.90
53962;DHT22;39868;53.398;6.564;2023-01-13T01:01:38;11.10;75.80
53962;DHT22;39868;53.398;6.564;2023-01-13T01:04:06;11.10;76.00
53962;DHT22;39868;53.398;6.564;2023-01-13T01:06:34;11.00;76.00
53962;DHT22;39868;53.398;6.564;2023-01-13T01:09:02;11.00;75.80
53962;DHT22;39868;53.398;6.564;2023-01-13T01:11:31;11.00;75.80
53962;DHT22;39868;53.398;6.564;2023-01-13T01:14:02;10.90;75.80
53962;DHT22;39868;53.398;6.564;2023-01-13T01:16:31;10.90;75.70
53962;DHT22;39868;53.398;6.564;2023-01-13T01:18:59;10.90;75.70
53962;DHT22;39868;53.398;6.564;2023-01-13T01:21:28;10.90;76.00
53962;DHT22;39868;53.398;6.564;2023-01-13T01:23:58;10.90;76.00
53962;DHT22;39868;53.398;6.564;2023-01-13T01:26:28;10.90;76.20
53962;DHT22;39868;53.398;6.564;2023-01-13T01:28:56;10.80;75.70
53962;DHT22;39868;53.398;6.564;2023-01-13T01:31:26;10.80;75.80
53962;DHT22;39868;53.398;6.564;2023-01-13T01:33:54;10.80;75.70
53962;DHT22;39868;53.398;6.564;2023-01-13T01:36:23;10.80;75.70
53962;DHT22;39868;53.398;6.564;2023-01-13T01:38:57;10.70;75.60
53962;DHT22;39868;53.398;6.564;2023-01-13T01:41:27;10.70;75.80
53962;DHT22;39868;53.398;6.564;2023-01-13T01:43:58;10.70;75.80
53962;DHT22;39868;53.398;6.564;2023-01-13T01:49:04;10.70;75.60
53962;DHT22;39868;53.398;6.564;2023-01-13T01:51:46;10.70;75.60
53962;DHT22;39868;53.398;6.564;2023-01-13T01:54:22;10.60;75.20
53962;DHT22;39868;53.398;6.564;2023-01-13T01:56:51;10.60;75.50
53962;DHT22;39868;53.398;6.564;2023-01-13T01:59:20;10.60;75.10
53962;DHT22;39868;53.398;6.564;2023-01-13T02:01:47;10.60;75.30
53962;DHT22;39868;53.398;6.564;2023-01-13T02:04:19;10.60;76.00
53962;DHT22;39868;53.398;6.564;2023-01-13T02:06:49;10.60;75.10
53962;DHT22;39868;53.398;6.564;2023-01-13T02:09:18;10.50;75.50
53962;DHT22;39868;53.398;6.564;2023-01-13T02:11:46;10.50;75.50
53962;DHT22;39868;53.398;6.564;2023-01-13T02:14:32;10.50;75.50
53962;DHT22;39868;53.398;6.564;2023-01-13T02:17:21;10.50;75.30
53962;DHT22;39868;53.398;6.564;2023-01-13T02:32:16;10.40;75.60
53962;DHT22;39868;53.398;6.564;2023-01-13T02:34:54;10.40;75.00
53962;DHT22;39868;53.398;6.564;2023-01-13T02:37:29;10.40;75.40
53962;DHT22;39868;53.398;6.564;2023-01-13T02:40:28;10.50;75.50
53962;DHT22;39868;53.398;6.564;2023-01-13T02:43:05;10.50;75.70
53962;DHT22;39868;53.398;6.564;2023-01-13T02:46:19;10.50;75.60
53962;DHT22;39868;53.398;6.564;2023-01-13T02:48:45;10.50;75.30
53962;DHT22;39868;53.398;6.564;2023-01-13T02:51:17;10.50;75.40
53962;DHT22;39868;53.398;6.564;2023-01-13T02:54:07;10.50;75.20
53962;DHT22;39868;53.398;6.564;2023-01-13T02:56:39;10.50;75.40
53962;DHT22;39868;53.398;6.564;2023-01-13T02:59:08;10.50;75.50
53962;DHT22;39868;53.398;6.564;2023-01-13T03:01:37;10.50;75.60
53962;DHT22;39868;53.398;6.564;2023-01-13T03:07:14;10.50;75.80
53962;DHT22;39868;53.398;6.564;2023-01-13T03:10:08;10.50;76.00
53962;DHT22;39868;53.398;6.564;2023-01-13T03:17:47;10.50;76.50
53962;DHT22;39868;53.398;6.564;2023-01-13T03:20:22;10.50;76.60
53962;DHT22;39868;53.398;6.564;2023-01-13T03:23:09;10.50;76.50
53962;DHT22;39868;53.398;6.564;2023-01-13T03:25:49;10.50;76.60
53962;DHT22;39868;53.398;6.564;2023-01-13T03:28:24;10.50;76.70
53962;DHT22;39868;53.398;6.564;2023-01-13T03:31:00;10.50;76.70
53962;DHT22;39868;53.398;6.564;2023-01-13T03:33:38;10.50;76.80
53962;DHT22;39868;53.398;6.564;2023-01-13T03:36:09;10.50;76.60
53962;DHT22;39868;53.398;6.564;2023-01-13T03:38:45;10.50;76.70
53962;DHT22;39868;53.398;6.564;2023-01-13T03:42:05;10.50;76.60
53962;DHT22;39868;53.398;6.564;2023-01-13T03:47:15;10.50;76.60
53962;DHT22;39868;53.398;6.564;2023-01-13T03:52:55;10.60;76.50
53962;DHT22;39868;53.398;6.564;2023-01-13T03:55:31;10.60;76.20
53962;DHT22;39868;53.398;6.564;2023-01-13T04:00:37;10.60;75.90
53962;DHT22;39868;53.398;6.564;2023-01-13T04:03:10;10.70;76.00
53962;DHT22;39868;53.398;6.564;2023-01-13T04:05:41;10.70;75.70
53962;DHT22;39868;53.398;6.564;2023-01-13T04:08:17;10.70;75.60
53962;DHT22;39868;53.398;6.564;2023-01-13T04:11:00;10.70;75.50
53962;DHT22;39868;53.398;6.564;2023-01-13T04:13:33;10.70;75.60
53962;DHT22;39868;53.398;6.564;2023-01-13T04:16:05;10.70;75.80
53962;DHT22;39868;53.398;6.564;2023-01-13T04:18:36;10.70;75.90
53962;DHT22;39868;53.398;6.564;2023-01-13T04:21:05;10.70;76.10
53962;DHT22;39868;53.398;6.564;2023-01-13T04:23:33;10.70;76.10
53962;DHT22;39868;53.398;6.564;2023-01-13T04:26:01;10.80;76.30
53962;DHT22;39868;53.398;6.564;2023-01-13T04:28:28;10.80;76.30
53962;DHT22;39868;53.398;6.564;2023-01-13T04:30:56;10.70;76.10
53962;DHT22;39868;53.398;6.564;2023-01-13T04:33:24;10.70;76.00
53962;DHT22;39868;53.398;6.564;2023-01-13T04:35:51;10.80;76.20
53962;DHT22;39868;53.398;6.564;2023-01-13T04:38:20;10.80;76.30
53962;DHT22;39868;53.398;6.564;2023-01-13T04:40:48;10.80;76.20
53962;DHT22;39868;53.398;6.564;2023-01-13T04:43:15;10.80;76.00
53962;DHT22;39868;53.398;6.564;2023-01-13T04:45:43;10.80;75.60
53962;DHT22;39868;53.398;6.564;2023-01-13T04:48:11;10.80;75.80
53962;DHT22;39868;53.398;6.564;2023-01-13T04:50:39;10.80;75.50
53962;DHT22;39868;53.398;6.564;2023-01-13T04:53:06;10.80;75.50
53962;DHT22;39868;53.398;6.564;2023-01-13T04:55:34;10.90;75.10
53962;DHT22;39868;53.398;6.564;2023-01-13T04:58:07;10.90;75.00
53962;DHT22;39868;53.398;6.564;2023-01-13T05:00:35;10.90;75.00
53962;DHT22;39868;53.398;6.564;2023-01-13T05:03:03;10.90;75.30
53962;DHT22;39868;53.398;6.564;2023-01-13T05:05:31;10.90;75.20
53962;DHT22;39868;53.398;6.564;2023-01-13T05:07:59;10.90;75.20
53962;DHT22;39868;53.398;6.564;2023-01-13T05:10:26;10.90;75.00
53962;DHT22;39868;53.398;6.564;2023-01-13T05:12:54;11.00;74.40
53962;DHT22;39868;53.398;6.564;2023-01-13T05:15:41;11.00;74.20
53962;DHT22;39868;53.398;6.564;2023-01-13T05:18:28;11.00;74.40
53962;DHT22;39868;53.398;6.564;2023-01-13T05:20:57;11.00;73.70
53962;DHT22;39868;53.398;6.564;2023-01-13T05:23:25;11.00;73.20
53962;DHT22;39868;53.398;6.564;2023-01-13T05:26:11;11.00;73.20
53962;DHT22;39868;53.398;6.564;2023-01-13T05:28:38;11.00;73.20
53962;DHT22;39868;53.398;6.564;2023-01-13T05:31:06;11.00;73.10
53962;DHT22;39868;53.398;6.564;2023-01-13T05:33:34;11.10;73.10
53962;DHT22;39868;53.398;6.564;2023-01-13T05:36:02;11.10;73.00
53962;DHT22;39868;53.398;6.564;2023-01-13T05:38:30;11.10;73.30
53962;DHT22;39868;53.398;6.564;2023-01-13T05:41:00;11.10;73.00
53962;DHT22;39868;53.398;6.564;2023-01-13T05:43:46;11.10;72.20
53962;DHT22;39868;53.398;6.564;2023-01-13T05:46:14;11.10;73.00
53962;DHT22;39868;53.398;6.564;2023-01-13T05:48:43;11.10;72.30
53962;DHT22;39868;53.398;6.564;2023-01-13T05:51:12;11.10;72.60
53962;DHT22;39868;53.398;6.564;2023-01-13T05:53:40;11.10;71.60
53962;DHT22;39868;53.398;6.564;2023-01-13T05:56:08;11.10;72.60
53962;DHT22;39868;53.398;6.564;2023-01-13T05:58:36;11.10;72.20
53962;DHT22;39868;53.398;6.564;2023-01-13T06:01:06;11.10;72.20
53962;DHT22;39868;53.398;6.564;2023-01-13T06:03:35;11.10;72.40
53962;DHT22;39868;53.398;6.564;2023-01-13T06:06:03;11.10;72.60
53962;DHT22;39868;53.398;6.564;2023-01-13T06:08:31;11.20;72.70
53962;DHT22;39868;53.398;6.564;2023-01-13T06:10:58;11.20;72.70
53962;DHT22;39868;53.398;6.564;2023-01-13T06:13:26;11.10;72.50
53962;DHT22;39868;53.398;6.564;2023-01-13T06:15:57;11.10;72.70
53962;DHT22;39868;53.398;6.564;2023-01-13T06:18:26;11.10;72.30
53962;DHT22;39868;53.398;6.564;2023-01-13T06:20:54;11.10;72.40
53962;DHT22;39868;53.398;6.564;2023-01-13T06:23:22;11.10;72.60
53962;DHT22;39868;53.398;6.564;2023-01-13T06:28:33;11.10;72.80
53962;DHT22;39868;53.398;6.564;2023-01-13T06:31:04;11.10;73.40
53962;DHT22;39868;53.398;6.564;2023-01-13T06:33:36;11.10;74.20
53962;DHT22;39868;53.398;6.564;2023-01-13T06:36:14;11.10;74.80
53962;DHT22;39868;53.398;6.564;2023-01-13T06:38:46;11.10;75.00
53962;DHT22;39868;53.398;6.564;2023-01-13T06:41:14;11.00;75.20
53962;DHT22;39868;53.398;6.564;2023-01-13T06:43:42;11.00;75.30
53962;DHT22;39868;53.398;6.564;2023-01-13T06:46:09;10.90;75.50
53962;DHT22;39868;53.398;6.564;2023-01-13T06:48:37;10.90;75.60
53962;DHT22;39868;53.398;6.564;2023-01-13T06:51:05;10.90;75.80
53962;DHT22;39868;53.398;6.564;2023-01-13T06:53:32;10.90;76.00
53962;DHT22;39868;53.398;6.564;2023-01-13T06:56:00;10.80;75.90
53962;DHT22;39868;53.398;6.564;2023-01-13T06:58:27;10.80;76.00
53962;DHT22;39868;53.398;6.564;2023-01-13T07:00:59;10.80;76.10
53962;DHT22;39868;53.398;6.564;2023-01-13T07:03:27;10.80;76.00
53962;DHT22;39868;53.398;6.564;2023-01-13T07:05:55;10.70;75.80
53962;DHT22;39868;53.398;6.564;2023-01-13T07:08:23;10.70;75.80
53962;DHT22;39868;53.398;6.564;2023-01-13T07:10:51;10.70;75.90
53962;DHT22;39868;53.398;6.564;2023-01-13T07:13:19;10.70;76.20
53962;DHT22;39868;53.398;6.564;2023-01-13T07:16:07;10.70;76.40
53962;DHT22;39868;53.398;6.564;2023-01-13T07:18:35;10.60;76.50
53962;DHT22;39868;53.398;6.564;2023-01-13T07:21:08;10.60;76.60
53962;DHT22;39868;53.398;6.564;2023-01-13T07:23:39;10.60;76.70
53962;DHT22;39868;53.398;6.564;2023-01-13T07:26:08;10.60;76.70
53962;DHT22;39868;53.398;6.564;2023-01-13T07:28:37;10.60;76.80
53962;DHT22;39868;53.398;6.564;2023-01-13T07:31:10;10.60;76.90
53962;DHT22;39868;53.398;6.564;2023-01-13T07:33:39;10.60;76.90
53962;DHT22;39868;53.398;6.564;2023-01-13T07:36:06;10.50;76.90
53962;DHT22;39868;53.398;6.564;2023-01-13T07:38:34;10.50;76.90
53962;DHT22;39868;53.398;6.564;2023-01-13T07:41:02;10.50;77.00
53962;DHT22;39868;53.398;6.564;2023-01-13T07:43:48;10.50;77.10
53962;DHT22;39868;53.398;6.564;2023-01-13T07:46:16;10.50;77.10
53962;DHT22;39868;53.398;6.564;2023-01-13T07:48:46;10.50;77.30
53962;DHT22;39868;53.398;6.564;2023-01-13T07:51:15;10.50;77.20
53962;DHT22;39868;53.398;6.564;2023-01-13T07:53:42;10.50;77.10
53962;DHT22;39868;53.398;6.564;2023-01-13T07:56:10;10.50;77.10
53962;DHT22;39868;53.398;6.564;2023-01-13T07:58:37;10.50;77.10
53962;DHT22;39868;53.398;6.564;2023-01-13T08:01:12;10.40;77.10
53962;DHT22;39868;53.398;6.564;2023-01-13T08:03:40;10.50;77.00
53962;DHT22;39868;53.398;6.564;2023-01-13T08:06:08;10.50;76.80
53962;DHT22;39868;53.398;6.564;2023-01-13T08:08:37;10.50;76.90
53962;DHT22;39868;53.398;6.564;2023-01-13T08:11:06;10.50;76.90
53962;DHT22;39868;53.398;6.564;2023-01-13T08:13:34;10.50;77.00
53962;DHT22;39868;53.398;6.564;2023-01-13T08:16:09;10.50;77.00
53962;DHT22;39868;53.398;6.564;2023-01-13T08:18:37;10.50;77.00
53962;DHT22;39868;53.398;6.564;2023-01-13T08:21:07;10.50;77.00
53962;DHT22;39868;53.398;6.564;2023-01-13T08:23:36;10.50;77.00
53962;DHT22;39868;53.398;6.564;2023-01-13T08:26:06;10.50;76.90
53962;DHT22;39868;53.398;6.564;2023-01-13T08:28:34;10.60;77.60
53962;DHT22;39868;53.398;6.564;2023-01-13T08:31:04;10.60;77.00
53962;DHT22;39868;53.398;6.564;2023-01-13T08:33:32;10.60;77.10
53962;DHT22;39868;53.398;6.564;2023-01-13T08:36:05;10.60;77.10
53962;DHT22;39868;53.398;6.564;2023-01-13T08:38:33;10.60;77.00
53962;DHT22;39868;53.398;6.564;2023-01-13T08:41:10;10.60;76.70
53962;DHT22;39868;53.398;6.564;2023-01-13T08:43:38;10.70;76.80
53962;DHT22;39868;53.398;6.564;2023-01-13T08:46:06;10.70;76.60
53962;DHT22;39868;53.398;6.564;2023-01-13T08:48:34;10.70;76.70
53962;DHT22;39868;53.398;6.564;2023-01-13T08:51:04;10.70;76.80
53962;DHT22;39868;53.398;6.564;2023-01-13T08:53:32;10.70;76.90
53962;DHT22;39868;53.398;6.564;2023-01-13T08:55:59;10.70;76.70
53962;DHT22;39868;53.398;6.564;2023-01-13T08:58:27;10.70;76.90
53962;DHT22;39868;53.398;6.564;2023-01-13T09:00:54;10.70;77.20
53962;DHT22;39868;53.398;6.564;2023-01-13T09:03:22;10.70;77.40
53962;DHT22;39868;53.398;6.564;2023-01-13T09:05:49;10.70;77.60
53962;DHT22;39868;53.398;6.564;2023-01-13T09:08:17;10.70;78.00
53962;DHT22;39868;53.398;6.564;2023-01-13T09:10:44;10.70;78.10
53962;DHT22;39868;53.398;6.564;2023-01-13T09:13:13;10.70;78.50
53962;DHT22;39868;53.398;6.564;2023-01-13T09:15:44;10.70;78.60
53962;DHT22;39868;53.398;6.564;2023-01-13T09:18:12;10.60;78.60
53962;DHT22;39868;53.398;6.564;2023-01-13T09:20:40;10.60;78.60
53962;DHT22;39868;53.398;6.564;2023-01-13T09:23:07;10.60;78.20
53962;DHT22;39868;53.398;6.564;2023-01-13T09:25:37;10.50;78.20
53962;DHT22;39868;53.398;6.564;2023-01-13T09:28:05;10.50;78.40
53962;DHT22;39868;53.398;6.564;2023-01-13T09:30:36;10.50;78.60
53962;DHT22;39868;53.398;6.564;2023-01-13T09:33:03;10.50;78.70
53962;DHT22;39868;53.398;6.564;2023-01-13T09:35:49;10.50;78.90
53962;DHT22;39868;53.398;6.564;2023-01-13T09:38:17;10.50;79.00
53962;DHT22;39868;53.398;6.564;2023-01-13T09:40:47;10.50;79.00
53962;DHT22;39868;53.398;6.564;2023-01-13T09:43:17;10.50;79.10
53962;DHT22;39868;53.398;6.564;2023-01-13T09:46:12;10.50;79.20
53962;DHT22;39868;53.398;6.564;2023-01-13T09:49:00;10.50;79.30
53962;DHT22;39868;53.398;6.564;2023-01-13T09:51:34;10.60;79.40
53962;DHT22;39868;53.398;6.564;2023-01-13T09:54:52;10.60;79.60
53962;DHT22;39868;53.398;6.564;2023-01-13T09:56:59;10.60;79.60
53962;DHT22;39868;53.398;6.564;2023-01-13T09:59:30;10.60;79.50
53962;DHT22;39868;53.398;6.564;2023-01-13T10:02:30;10.60;79.60
53962;DHT22;39868;53.398;6.564;2023-01-13T10:05:14;10.60;79.80
53962;DHT22;39868;53.398;6.564;2023-01-13T10:08:07;10.60;79.70
53962;DHT22;39868;53.398;6.564;2023-01-13T10:10:44;10.60;80.10
53962;DHT22;39868;53.398;6.564;2023-01-13T10:13:20;10.50;80.00
53962;DHT22;39868;53.398;6.564;2023-01-13T10:29:50;10.50;80.40
53962;DHT22;39868;53.398;6.564;2023-01-13T10:32:18;10.50;80.40
53962;DHT22;39868;53.398;6.564;2023-01-13T10:34:48;10.50;80.50
53962;DHT22;39868;53.398;6.564;2023-01-13T10:37:21;10.50;80.50
53962;DHT22;39868;53.398;6.564;2023-01-13T10:39:53;10.60;80.60
53962;DHT22;39868;53.398;6.564;2023-01-13T10:42:22;10.60;80.60
53962;DHT22;39868;53.398;6.564;2023-01-13T10:44:58;10.70;80.60
53962;DHT22;39868;53.398;6.564;2023-01-13T10:47:32;10.80;80.60
53962;DHT22;39868;53.398;6.564;2023-01-13T10:52:29;10.80;80.30
53962;DHT22;39868;53.398;6.564;2023-01-13T10:54:58;10.90;80.30
53962;DHT22;39868;53.398;6.564;2023-01-13T10:57:26;10.90;80.20
53962;DHT22;39868;53.398;6.564;2023-01-13T10:59:54;10.90;80.20
53962;DHT22;39868;53.398;6.564;2023-01-13T11:02:31;10.90;80.20
53962;DHT22;39868;53.398;6.564;2023-01-13T11:05:08;10.90;80.10
53962;DHT22;39868;53.398;6.564;2023-01-13T11:07:45;11.00;80.00
53962;DHT22;39868;53.398;6.564;2023-01-13T11:10:24;11.00;80.00
53962;DHT22;39868;53.398;6.564;2023-01-13T11:18:19;11.10;79.80
53962;DHT22;39868;53.398;6.564;2023-01-13T11:20:50;11.10;79.70
53962;DHT22;39868;53.398;6.564;2023-01-13T11:23:43;11.10;79.50
53962;DHT22;39868;53.398;6.564;2023-01-13T11:26:22;11.20;79.50
53962;DHT22;39868;53.398;6.564;2023-01-13T11:29:10;11.20;79.30
53962;DHT22;39868;53.398;6.564;2023-01-13T11:31:45;11.30;79.30
53962;DHT22;39868;53.398;6.564;2023-01-13T11:34:21;11.30;79.00
53962;DHT22;39868;53.398;6.564;2023-01-13T11:36:54;11.40;79.00
53962;DHT22;39868;53.398;6.564;2023-01-13T11:42:28;11.40;78.30
53962;DHT22;39868;53.398;6.564;2023-01-13T11:48:03;11.40;78.00
53962;DHT22;39868;53.398;6.564;2023-01-13T11:50:56;11.40;78.10
53962;DHT22;39868;53.398;6.564;2023-01-13T11:53:35;11.40;78.30
53962;DHT22;39868;53.398;6.564;2023-01-13T12:02:02;11.30;78.90
53962;DHT22;39868;53.398;6.564;2023-01-13T12:07:21;11.20;79.10
53962;DHT22;39868;53.398;6.564;2023-01-13T12:10:02;11.10;79.10
53962;DHT22;39868;53.398;6.564;2023-01-13T12:15:51;11.10;79.30
53962;DHT22;39868;53.398;6.564;2023-01-13T12:19:03;11.10;79.40
53962;DHT22;39868;53.398;6.564;2023-01-13T12:22:05;11.10;79.30
53962;DHT22;39868;53.398;6.564;2023-01-13T12:30:29;11.00;79.70
53962;DHT22;39868;53.398;6.564;2023-01-13T12:38:54;11.00;79.90
53962;DHT22;39868;53.398;6.564;2023-01-13T12:43:59;11.00;80.40
53962;DHT22;39868;53.398;6.564;2023-01-13T12:46:51;11.10;79.90
53962;DHT22;39868;53.398;6.564;2023-01-13T12:49:33;11.10;79.80
53962;DHT22;39868;53.398;6.564;2023-01-13T12:52:11;11.10;79.60
53962;DHT22;39868;53.398;6.564;2023-01-13T13:00:10;11.20;79.20
53962;DHT22;39868;53.398;6.564;2023-01-13T13:02:42;11.20;79.30
53962;DHT22;39868;53.398;6.564;2023-01-13T13:08:12;11.30;79.80
53962;DHT22;39868;53.398;6.564;2023-01-13T13:14:00;11.30;79.40
53962;DHT22;39868;53.398;6.564;2023-01-13T13:24:33;11.40;78.80
53962;DHT22;39868;53.398;6.564;2023-01-13T13:39:18;11.40;78.00
53962;DHT22;39868;53.398;6.564;2023-01-13T13:44:58;11.50;78.00
53962;DHT22;39868;53.398;6.564;2023-01-13T13:47:45;11.50;77.90
53962;DHT22;39868;53.398;6.564;2023-01-13T13:50:16;11.50;77.90
53962;DHT22;39868;53.398;6.564;2023-01-13T13:55:25;11.50;78.00
53962;DHT22;39868;53.398;6.564;2023-01-13T13:57:54;11.50;78.10
53962;DHT22;39868;53.398;6.564;2023-01-13T14:00:29;11.50;78.20
53962;DHT22;39868;53.398;6.564;2023-01-13T14:03:29;11.50;78.30
53962;DHT22;39868;53.398;6.564;2023-01-13T14:06:02;11.40;78.10
53962;DHT22;39868;53.398;6.564;2023-01-13T14:08:33;11.40;78.20
53962;DHT22;39868;53.398;6.564;2023-01-13T14:11:24;11.40;78.20
53962;DHT22;39868;53.398;6.564;2023-01-13T14:14:11;11.40;78.20
53962;DHT22;39868;53.398;6.564;2023-01-13T14:16:40;11.40;78.40
53962;DHT22;39868;53.398;6.564;2023-01-13T14:19:42;11.30;78.60
53962;DHT22;39868;53.398;6.564;2023-01-13T14:22:30;11.30;78.90
53962;DHT22;39868;53.398;6.564;2023-01-13T14:24:58;11.30;79.10
53962;DHT22;39868;53.398;6.564;2023-01-13T14:27:29;11.20;79.20
53962;DHT22;39868;53.398;6.564;2023-01-13T14:30:00;11.30;79.30
53962;DHT22;39868;53.398;6.564;2023-01-13T14:32:35;11.20;79.00
53962;DHT22;39868;53.398;6.564;2023-01-13T14:35:06;11.20;78.50
53962;DHT22;39868;53.398;6.564;2023-01-13T14:37:41;11.20;78.30
53962;DHT22;39868;53.398;6.564;2023-01-13T14:43:15;11.20;78.10
53962;DHT22;39868;53.398;6.564;2023-01-13T14:45:58;11.10;78.20
53962;DHT22;39868;53.398;6.564;2023-01-13T14:48:31;11.10;77.70
53962;DHT22;39868;53.398;6.564;2023-01-13T14:51:04;11.10;77.70
53962;DHT22;39868;53.398;6.564;2023-01-13T14:53:43;11.10;77.60
53962;DHT22;39868;53.398;6.564;2023-01-13T14:59:31;11.00;77.60
53962;DHT22;39868;53.398;6.564;2023-01-13T15:02:21;11.00;77.40
53962;DHT22;39868;53.398;6.564;2023-01-13T15:04:49;11.00;76.80
53962;DHT22;39868;53.398;6.564;2023-01-13T15:07:28;10.90;76.70
53962;DHT22;39868;53.398;6.564;2023-01-13T15:09:59;10.80;76.00
53962;DHT22;39868;53.398;6.564;2023-01-13T15:14:57;10.70;76.30
53962;DHT22;39868;53.398;6.564;2023-01-13T15:17:24;10.70;77.20
53962;DHT22;39868;53.398;6.564;2023-01-13T15:19:52;10.70;76.70
53962;DHT22;39868;53.398;6.564;2023-01-13T15:22:20;10.60;77.00
53962;DHT22;39868;53.398;6.564;2023-01-13T15:24:47;10.60;77.30
53962;DHT22;39868;53.398;6.564;2023-01-13T15:27:21;10.60;77.60
53962;DHT22;39868;53.398;6.564;2023-01-13T15:29:50;10.50;77.90
53962;DHT22;39868;53.398;6.564;2023-01-13T15:32:19;10.50;78.10
53962;DHT22;39868;53.398;6.564;2023-01-13T15:34:47;10.50;78.40
53962;DHT22;39868;53.398;6.564;2023-01-13T15:37:15;10.40;78.50
53962;DHT22;39868;53.398;6.564;2023-01-13T15:39:45;10.40;78.70
53962;DHT22;39868;53.398;6.564;2023-01-13T15:42:13;10.40;78.90
53962;DHT22;39868;53.398;6.564;2023-01-13T15:44:59;10.40;79.00
53962;DHT22;39868;53.398;6.564;2023-01-13T15:47:45;10.40;79.20
53962;DHT22;39868;53.398;6.564;2023-01-13T15:50:15;10.30;79.20
53962;DHT22;39868;53.398;6.564;2023-01-13T15:52:43;10.30;79.60
53962;DHT22;39868;53.398;6.564;2023-01-13T15:55:11;10.30;79.60
53962;DHT22;39868;53.398;6.564;2023-01-13T15:57:48;10.30;79.10
53962;DHT22;39868;53.398;6.564;2023-01-13T16:00:19;10.30;78.80
53962;DHT22;39868;53.398;6.564;2023-01-13T16:02:50;10.30;78.60
53962;DHT22;39868;53.398;6.564;2023-01-13T16:05:18;10.30;78.50
53962;DHT22;39868;53.398;6.564;2023-01-13T16:07:46;10.30;78.30
53962;DHT22;39868;53.398;6.564;2023-01-13T16:10:24;10.30;78.10
53962;DHT22;39868;53.398;6.564;2023-01-13T16:12:53;10.20;78.10
53962;DHT22;39868;53.398;6.564;2023-01-13T16:15:22;10.20;78.30
53962;DHT22;39868;53.398;6.564;2023-01-13T16:17:55;10.20;78.40
53962;DHT22;39868;53.398;6.564;2023-01-13T16:20:23;10.20;78.50
53962;DHT22;39868;53.398;6.564;2023-01-13T16:22:51;10.20;79.20
53962;DHT22;39868;53.398;6.564;2023-01-13T16:25:24;10.20;78.70
53962;DHT22;39868;53.398;6.564;2023-01-13T16:27:52;10.30;79.00
53962;DHT22;39868;53.398;6.564;2023-01-13T16:30:29;10.30;79.40
53962;DHT22;39868;53.398;6.564;2023-01-13T16:32:57;10.30;79.30
53962;DHT22;39868;53.398;6.564;2023-01-13T16:35:25;10.30;79.30
53962;DHT22;39868;53.398;6.564;2023-01-13T16:37:53;10.40;79.30
53962;DHT22;39868;53.398;6.564;2023-01-13T16:40:30;10.30;79.30
53962;DHT22;39868;53.398;6.564;2023-01-13T16:43:00;10.40;79.30
53962;DHT22;39868;53.398;6.564;2023-01-13T16:45:30;10.40;79.30
53962;DHT22;39868;53.398;6.564;2023-01-13T16:47:58;10.40;79.30
53962;DHT22;39868;53.398;6.564;2023-01-13T16:50:36;10.40;79.30
53962;DHT22;39868;53.398;6.564;2023-01-13T16:53:08;10.40;79.30
53962;DHT22;39868;53.398;6.564;2023-01-13T16:55:37;10.50;79.20
53962;DHT22;39868;53.398;6.564;2023-01-13T16:58:05;10.50;79.20
53962;DHT22;39868;53.398;6.564;2023-01-13T17:00:33;10.40;79.10
53962;DHT22;39868;53.398;6.564;2023-01-13T17:03:01;10.40;79.00
53962;DHT22;39868;53.398;6.564;2023-01-13T17:05:28;10.50;79.00
53962;DHT22;39868;53.398;6.564;2023-01-13T17:07:56;10.40;79.00
53962;DHT22;39868;53.398;6.564;2023-01-13T17:10:24;10.50;79.00
53962;DHT22;39868;53.398;6.564;2023-01-13T17:12:52;10.50;79.00
53962;DHT22;39868;53.398;6.564;2023-01-13T17:15:19;10.50;79.00
53962;DHT22;39868;53.398;6.564;2023-01-13T17:17:47;10.50;78.90
53962;DHT22;39868;53.398;6.564;2023-01-13T17:20:18;10.50;78.80
53962;DHT22;39868;53.398;6.564;2023-01-13T17:22:45;10.50;78.90
53962;DHT22;39868;53.398;6.564;2023-01-13T17:25:23;10.50;78.90
53962;DHT22;39868;53.398;6.564;2023-01-13T17:27:51;10.60;78.90
53962;DHT22;39868;53.398;6.564;2023-01-13T17:30:18;10.60;78.90
53962;DHT22;39868;53.398;6.564;2023-01-13T17:32:47;10.60;79.00
53962;DHT22;39868;53.398;6.564;2023-01-13T17:35:14;10.60;78.90
53962;DHT22;39868;53.398;6.564;2023-01-13T17:37:45;10.60;78.90
53962;DHT22;39868;53.398;6.564;2023-01-13T17:40:13;10.70;78.90
53962;DHT22;39868;53.398;6.564;2023-01-13T17:42:40;10.70;78.90
53962;DHT22;39868;53.398;6.564;2023-01-13T17:45:08;10.70;78.80
53962;DHT22;39868;53.398;6.564;2023-01-13T17:47:38;10.70;78.80
53962;DHT22;39868;53.398;6.564;2023-01-13T17:50:07;10.70;78.70
53962;DHT22;39868;53.398;6.564;2023-01-13T17:52:35;10.70;78.70
53962;DHT22;39868;53.398;6.564;2023-01-13T17:55:03;10.70;78.70
53962;DHT22;39868;53.398;6.564;2023-01-13T17:57:30;10.70;78.50
53962;DHT22;39868;53.398;6.564;2023-01-13T17:59:58;10.70;78.40
53962;DHT22;39868;53.398;6.564;2023-01-13T18:02:25;10.70;78.30
53962;DHT22;39868;53.398;6.564;2023-01-13T18:04:53;10.70;78.30
53962;DHT22;39868;53.398;6.564;2023-01-13T18:07:21;10.70;78.20
53962;DHT22;39868;53.398;6.564;2023-01-13T18:09:48;10.70;78.20
53962;DHT22;39868;53.398;6.564;2023-01-13T18:12:16;10.70;78.10
53962;DHT22;39868;53.398;6.564;2023-01-13T18:14:43;10.70;78.20
53962;DHT22;39868;53.398;6.564;2023-01-13T18:17:11;10.60;78.20